Enchantment of the Seas — C6FZ7 — position and weather

sailwx.info

Track history (hours):
 
Tides and Currents Weather Stations Pressure Air Temp Water Temp Dewpoint Dewpoint Depression Visibility Wind Speed Wind Dir Waves Ship Positions

Enchantment of the Seas (Bahamas)

Last reported at 2019-May-20 16:23 UTC. Time now 2019-May-20 16:39 UTC.
Position N 20°29' W 086°59'.

Type: Passenger vessel. MMSI: 311733000.

Date/timePositionNaut miles runAvg speedWind from/ knotsBaromVisibWave heightAir tempDewpointWater temp
2019-May-20 16:23N 20°29' W 086°59'0 0.0
2019-May-20 15:56N 20°29' W 086°59'0 0.0
2019-May-20 15:29N 20°29' W 086°59'0 0.0
2019-May-20 14:56N 20°29' W 086°59'0 0.0
2019-May-20 14:29N 20°29' W 086°59'0 0.0
2019-May-20 13:59N 20°29' W 086°59'0 0.0
2019-May-20 13:26N 20°29' W 086°59'0 0.0
2019-May-20 12:59N 20°29' W 086°59'0 0.0
2019-May-20 12:23N 20°29' W 086°59'0 0.0
2019-May-20 11:56N 20°29' W 086°59'1 2.6
2019-May-20 11:30N 20°30' W 086°59'3 5.7
2019-May-20 11:00N 20°28' W 087°02'  
2019-May-18 01:34N 28°40' W 093°37'6118.3
2019-May-17 22:12N 29°15' W 094°35'415.9
2019-May-17 21:58N 29°17' W 094°38'612.2
2019-May-17 21:30N 29°21' W 094°43'5 9.7
2019-May-17 21:00N 29°19' W 094°48'0 0.4
2019-May-17 20:29N 29°19' W 094°48'0 0.0
2019-May-17 19:59N 29°19' W 094°48'0 0.0
2019-May-17 19:29N 29°19' W 094°48'0 0.0
2019-May-17 18:59N 29°19' W 094°48'0 0.0
2019-May-17 18:29N 29°19' W 094°48'0 0.0
2019-May-17 17:59N 29°19' W 094°48'0 0.0
2019-May-17 17:29N 29°19' W 094°48'0 0.0
2019-May-17 16:59N 29°19' W 094°48'0 0.0
2019-May-17 16:29N 29°19' W 094°48'0 0.0
2019-May-17 15:59N 29°19' W 094°48'0 0.0
2019-May-17 15:23N 29°19' W 094°48'0 0.0
2019-May-17 14:59N 29°19' W 094°48'0 0.0
2019-May-17 14:26N 29°19' W 094°48'0 0.0
2019-May-17 13:59N 29°19' W 094°48'0 0.0
2019-May-17 13:29N 29°19' W 094°48'0 0.0
2019-May-17 12:59N 29°19' W 094°48'0 0.0
2019-May-17 12:26N 29°19' W 094°48'0 0.0
2019-May-17 11:59N 29°19' W 094°48'1 1.4
2019-May-17 11:30N 29°19' W 094°47'1 2.0
2019-May-17 11:00N 29°20' W 094°47'611.4
2019-May-17 10:30N 29°20' W 094°40'713.6
2019-May-17 10:00N 29°16' W 094°34'1014.9
2019-May-17 09:19N 29°10' W 094°24'2715.9
2019-May-17 07:38N 28°55' W 093°59'716.4
2019-May-17 07:12N 28°51' W 093°52'316.5
2019-May-17 07:00N 28°49' W 093°49'1317.7
2019-May-17 06:17N 28°42' W 093°37'1720.1
2019-May-17 05:26N 28°32' W 093°22'920.3
2019-May-17 04:58N 28°26' W 093°13'1020.4
2019-May-17 04:30N 28°20' W 093°04'3820.3
2019-May-17 02:38N 27°52' W 092°35'918.1
2019-May-17 02:10N 27°46' W 092°29'52619.1
2019-May-15 22:34N 20°37' W 086°56'223.0
2019-May-15 22:31N 20°35' W 086°57'713.5
2019-May-15 22:00N 20°29' W 086°59'0 0.2
2019-May-15 21:28N 20°29' W 086°59'0 0.0
2019-May-15 20:55N 20°29' W 086°59'0 0.0
2019-May-15 20:28N 20°29' W 086°59'0 0.0
2019-May-15 19:58N 20°29' W 086°59'0 0.0
2019-May-15 19:28N 20°29' W 086°59'0 0.0
2019-May-15 18:55N 20°29' W 086°59'0 0.0
2019-May-15 18:28N 20°29' W 086°59'0 0.0
2019-May-15 17:55N 20°29' W 086°59'0 0.0
2019-May-15 17:22N 20°29' W 086°59'0 0.0
2019-May-15 16:58N 20°29' W 086°59'0 0.0
2019-May-15 16:28N 20°29' W 086°59'0 0.0
2019-May-15 15:58N 20°29' W 086°59'0 0.0
2019-May-15 15:28N 20°29' W 086°59'0 0.0
2019-May-15 14:58N 20°29' W 086°59'0 0.0
2019-May-15 14:28N 20°29' W 086°59'0 0.0
2019-May-15 13:52N 20°29' W 086°59'0 0.0
2019-May-15 13:28N 20°29' W 086°59'0 0.2
2019-May-15 13:00N 20°29' W 086°59'2 4.9
2019-May-15 12:30N 20°31' W 086°59'814.4
2019-May-15 11:56N 20°38' W 086°55'65717.6
2019-May-13 22:40N 29°11' W 094°29'317.3
2019-May-13 22:30N 29°13' W 094°31'816.3
2019-May-13 22:00N 29°18' W 094°38'613.3
2019-May-13 21:30N 29°21' W 094°45'3 6.7
2019-May-13 21:01N 29°19' W 094°48'0 0.0
2019-May-13 20:30N 29°19' W 094°48'0 0.0
2019-May-13 20:00N 29°19' W 094°48'0 0.0
2019-May-13 19:30N 29°19' W 094°48'0 0.0
2019-May-13 19:00N 29°19' W 094°48'0 0.0
2019-May-13 18:30N 29°19' W 094°48'0 0.0
2019-May-13 18:00N 29°19' W 094°48'0 0.0
2019-May-13 17:30N 29°19' W 094°48'0 0.0
2019-May-13 16:57N 29°19' W 094°48'0 0.0
2019-May-13 16:30N 29°19' W 094°48'0 0.0
2019-May-13 16:00N 29°19' W 094°48'0 0.0
2019-May-13 15:30N 29°19' W 094°48'0 0.0
2019-May-13 14:57N 29°19' W 094°48'0 0.0
2019-May-13 14:30N 29°19' W 094°48'0 0.0
2019-May-13 14:00N 29°19' W 094°48'0 0.0
2019-May-13 13:30N 29°19' W 094°48'0 0.0
2019-May-13 13:00N 29°19' W 094°48'0 0.0
2019-May-13 12:30N 29°19' W 094°48'0 0.0
2019-May-13 12:00N 29°19' W 094°48'1 1.8
2019-May-13 11:30N 29°19' W 094°47'1 2.2
2019-May-13 11:00N 29°20' W 094°47'611.4
2019-May-13 10:30N 29°20' W 094°40'612.6
2019-May-13 10:00N 29°16' W 094°34'1614.5
2019-May-13 08:54N 29°07' W 094°19'64818.6
2019-May-11 22:08N 20°39' W 086°56'322.7
2019-May-11 22:00N 20°37' W 086°58'715.1
2019-May-11 21:31N 20°29' W 086°58'0 0.7
2019-May-11 20:59N 20°29' W 086°59'0 0.0
2019-May-11 20:29N 20°29' W 086°59'0 0.0
2019-May-11 19:56N 20°29' W 086°59'0 0.0
2019-May-11 19:29N 20°29' W 086°59'0 0.0
2019-May-11 18:59N 20°29' W 086°59'0 0.0
2019-May-11 18:29N 20°29' W 086°59'0 0.0
2019-May-11 17:59N 20°29' W 086°59'0 0.0
2019-May-11 17:29N 20°29' W 086°59'0 0.0
2019-May-11 16:59N 20°29' W 086°59'0 0.0
2019-May-11 16:29N 20°29' W 086°59'0 0.0
2019-May-11 15:59N 20°29' W 086°59'0 0.0
2019-May-11 15:29N 20°29' W 086°59'0 0.0
2019-May-11 14:56N 20°29' W 086°59'0 0.0
2019-May-11 14:26N 20°29' W 086°59'0 0.0
2019-May-11 13:59N 20°29' W 086°59'0 0.0
2019-May-11 13:29N 20°29' W 086°59'0 0.0
2019-May-11 12:59N 20°29' W 086°59'0 0.0
2019-May-11 12:29N 20°29' W 086°59'0 0.4
2019-May-11 12:01N 20°29' W 086°58'3 5.6
2019-May-11 11:31N 20°32' W 086°60'4 7.3
2019-May-11 11:00N 20°29' W 087°02'  
Track history (hours):
 
Tides and Currents Weather Stations Pressure Air Temp Water Temp Dewpoint Dewpoint Depression Visibility Wind Speed Wind Dir Waves Ship Positions

Enchantment of the Seas (Bahamas)

Last reported at 2019-May-20 16:23 UTC. Time now 2019-May-20 16:39 UTC.
Position N 20°29' W 086°59'.

Type: Passenger vessel. MMSI: 311733000.

Date/timePositionNaut miles runAvg speedWind from/ knotsBaromVisibWave heightAir tempDewpointWater temp
2019-May-20 16:23N 20°29' W 086°59'0 0.0
2019-May-20 15:56N 20°29' W 086°59'0 0.0
2019-May-20 15:29N 20°29' W 086°59'0 0.0
2019-May-20 14:56N 20°29' W 086°59'0 0.0
2019-May-20 14:29N 20°29' W 086°59'0 0.0
2019-May-20 13:59N 20°29' W 086°59'0 0.0
2019-May-20 13:26N 20°29' W 086°59'0 0.0
2019-May-20 12:59N 20°29' W 086°59'0 0.0
2019-May-20 12:23N 20°29' W 086°59'0 0.0
2019-May-20 11:56N 20°29' W 086°59'1 2.6
2019-May-20 11:30N 20°30' W 086°59'3 5.7
2019-May-20 11:00N 20°28' W 087°02'  
2019-May-18 01:34N 28°40' W 093°37'6118.3
2019-May-17 22:12N 29°15' W 094°35'415.9
2019-May-17 21:58N 29°17' W 094°38'612.2
2019-May-17 21:30N 29°21' W 094°43'5 9.7
2019-May-17 21:00N 29°19' W 094°48'0 0.4
2019-May-17 20:29N 29°19' W 094°48'0 0.0
2019-May-17 19:59N 29°19' W 094°48'0 0.0
2019-May-17 19:29N 29°19' W 094°48'0 0.0
2019-May-17 18:59N 29°19' W 094°48'0 0.0
2019-May-17 18:29N 29°19' W 094°48'0 0.0
2019-May-17 17:59N 29°19' W 094°48'0 0.0
2019-May-17 17:29N 29°19' W 094°48'0 0.0
2019-May-17 16:59N 29°19' W 094°48'0 0.0
2019-May-17 16:29N 29°19' W 094°48'0 0.0
2019-May-17 15:59N 29°19' W 094°48'0 0.0
2019-May-17 15:23N 29°19' W 094°48'0 0.0
2019-May-17 14:59N 29°19' W 094°48'0 0.0
2019-May-17 14:26N 29°19' W 094°48'0 0.0
2019-May-17 13:59N 29°19' W 094°48'0 0.0
2019-May-17 13:29N 29°19' W 094°48'0 0.0
2019-May-17 12:59N 29°19' W 094°48'0 0.0
2019-May-17 12:26N 29°19' W 094°48'0 0.0
2019-May-17 11:59N 29°19' W 094°48'1 1.4
2019-May-17 11:30N 29°19' W 094°47'1 2.0
2019-May-17 11:00N 29°20' W 094°47'611.4
2019-May-17 10:30N 29°20' W 094°40'713.6
2019-May-17 10:00N 29°16' W 094°34'1014.9
2019-May-17 09:19N 29°10' W 094°24'2715.9
2019-May-17 07:38N 28°55' W 093°59'716.4
2019-May-17 07:12N 28°51' W 093°52'316.5
2019-May-17 07:00N 28°49' W 093°49'1317.7
2019-May-17 06:17N 28°42' W 093°37'1720.1
2019-May-17 05:26N 28°32' W 093°22'920.3
2019-May-17 04:58N 28°26' W 093°13'1020.4
2019-May-17 04:30N 28°20' W 093°04'3820.3
2019-May-17 02:38N 27°52' W 092°35'918.1
2019-May-17 02:10N 27°46' W 092°29'52619.1
2019-May-15 22:34N 20°37' W 086°56'223.0
2019-May-15 22:31N 20°35' W 086°57'713.5
2019-May-15 22:00N 20°29' W 086°59'0 0.2
2019-May-15 21:28N 20°29' W 086°59'0 0.0
2019-May-15 20:55N 20°29' W 086°59'0 0.0
2019-May-15 20:28N 20°29' W 086°59'0 0.0
2019-May-15 19:58N 20°29' W 086°59'0 0.0
2019-May-15 19:28N 20°29' W 086°59'0 0.0
2019-May-15 18:55N 20°29' W 086°59'0 0.0
2019-May-15 18:28N 20°29' W 086°59'0 0.0
2019-May-15 17:55N 20°29' W 086°59'0 0.0
2019-May-15 17:22N 20°29' W 086°59'0 0.0
2019-May-15 16:58N 20°29' W 086°59'0 0.0
2019-May-15 16:28N 20°29' W 086°59'0 0.0
2019-May-15 15:58N 20°29' W 086°59'0 0.0
2019-May-15 15:28N 20°29' W 086°59'0 0.0
2019-May-15 14:58N 20°29' W 086°59'0 0.0
2019-May-15 14:28N 20°29' W 086°59'0 0.0
2019-May-15 13:52N 20°29' W 086°59'0 0.0
2019-May-15 13:28N 20°29' W 086°59'0 0.2
2019-May-15 13:00N 20°29' W 086°59'2 4.9
2019-May-15 12:30N 20°31' W 086°59'814.4
2019-May-15 11:56N 20°38' W 086°55'65717.6
2019-May-13 22:40N 29°11' W 094°29'317.3
2019-May-13 22:30N 29°13' W 094°31'816.3
2019-May-13 22:00N 29°18' W 094°38'613.3
2019-May-13 21:30N 29°21' W 094°45'3 6.7
2019-May-13 21:01N 29°19' W 094°48'0 0.0
2019-May-13 20:30N 29°19' W 094°48'0 0.0
2019-May-13 20:00N 29°19' W 094°48'0 0.0
2019-May-13 19:30N 29°19' W 094°48'0 0.0
2019-May-13 19:00N 29°19' W 094°48'0 0.0
2019-May-13 18:30N 29°19' W 094°48'0 0.0
2019-May-13 18:00N 29°19' W 094°48'0 0.0
2019-May-13 17:30N 29°19' W 094°48'0 0.0
2019-May-13 16:57N 29°19' W 094°48'0 0.0
2019-May-13 16:30N 29°19' W 094°48'0 0.0
2019-May-13 16:00N 29°19' W 094°48'0 0.0
2019-May-13 15:30N 29°19' W 094°48'0 0.0
2019-May-13 14:57N 29°19' W 094°48'0 0.0
2019-May-13 14:30N 29°19' W 094°48'0 0.0
2019-May-13 14:00N 29°19' W 094°48'0 0.0
2019-May-13 13:30N 29°19' W 094°48'0 0.0
2019-May-13 13:00N 29°19' W 094°48'0 0.0
2019-May-13 12:30N 29°19' W 094°48'0 0.0
2019-May-13 12:00N 29°19' W 094°48'1 1.8
2019-May-13 11:30N 29°19' W 094°47'1 2.2
2019-May-13 11:00N 29°20' W 094°47'611.4
2019-May-13 10:30N 29°20' W 094°40'612.6
2019-May-13 10:00N 29°16' W 094°34'1614.5
2019-May-13 08:54N 29°07' W 094°19'64818.6
2019-May-11 22:08N 20°39' W 086°56'322.7
2019-May-11 22:00N 20°37' W 086°58'715.1
2019-May-11 21:31N 20°29' W 086°58'0 0.7
2019-May-11 20:59N 20°29' W 086°59'0 0.0
2019-May-11 20:29N 20°29' W 086°59'0 0.0
2019-May-11 19:56N 20°29' W 086°59'0 0.0
2019-May-11 19:29N 20°29' W 086°59'0 0.0
2019-May-11 18:59N 20°29' W 086°59'0 0.0
2019-May-11 18:29N 20°29' W 086°59'0 0.0
2019-May-11 17:59N 20°29' W 086°59'0 0.0
2019-May-11 17:29N 20°29' W 086°59'0 0.0
2019-May-11 16:59N 20°29' W 086°59'0 0.0
2019-May-11 16:29N 20°29' W 086°59'0 0.0
2019-May-11 15:59N 20°29' W 086°59'0 0.0
2019-May-11 15:29N 20°29' W 086°59'0 0.0
2019-May-11 14:56N 20°29' W 086°59'0 0.0
2019-May-11 14:26N 20°29' W 086°59'0 0.0
2019-May-11 13:59N 20°29' W 086°59'0 0.0
2019-May-11 13:29N 20°29' W 086°59'0 0.0
2019-May-11 12:59N 20°29' W 086°59'0 0.0
2019-May-11 12:29N 20°29' W 086°59'0 0.4
2019-May-11 12:01N 20°29' W 086°58'3 5.6
2019-May-11 11:31N 20°32' W 086°60'4 7.3
2019-May-11 11:00N 20°29' W 087°02'  

Dump ship's entire track history